createdAt,value
2022-12-31T00:01:31.112Z,10.59
2022-12-31T00:04:02.755Z,10.73
2022-12-31T00:06:35.837Z,10.84
2022-12-31T00:09:08.086Z,10.86
2022-12-31T00:11:39.782Z,11.00
2022-12-31T00:14:11.089Z,10.98
2022-12-31T00:16:42.609Z,11.18
2022-12-31T00:19:14.062Z,11.23
2022-12-31T00:21:45.381Z,11.16
2022-12-31T00:24:16.637Z,11.36
2022-12-31T00:26:48.430Z,11.41
2022-12-31T00:29:19.689Z,11.50
2022-12-31T00:31:50.956Z,11.53
2022-12-31T00:34:22.448Z,11.43
2022-12-31T00:36:53.733Z,11.52
2022-12-31T00:39:25.092Z,11.54
2022-12-31T00:41:56.640Z,11.46
2022-12-31T00:44:27.933Z,11.59
2022-12-31T00:46:59.228Z,11.62
2022-12-31T00:49:30.502Z,11.64
2022-12-31T00:52:01.781Z,11.47
2022-12-31T00:54:34.212Z,11.48
2022-12-31T00:57:05.455Z,11.73
2022-12-31T00:59:36.732Z,11.78
2022-12-31T01:02:08.294Z,11.82
2022-12-31T01:04:39.720Z,11.81
2022-12-31T01:07:10.967Z,11.85
2022-12-31T01:09:42.270Z,11.85
2022-12-31T01:12:13.537Z,11.82
2022-12-31T01:14:44.932Z,11.86
2022-12-31T01:17:17.163Z,11.93
2022-12-31T01:19:48.471Z,11.95
2022-12-31T01:22:19.870Z,12.02
2022-12-31T01:24:51.139Z,12.08
2022-12-31T01:27:22.393Z,12.13
2022-12-31T01:29:53.722Z,12.16
2022-12-31T01:32:24.970Z,12.17
2022-12-31T01:34:56.328Z,12.08
2022-12-31T01:37:28.040Z,12.16
2022-12-31T01:39:59.295Z,12.15
2022-12-31T01:42:30.606Z,12.13
2022-12-31T01:45:02.061Z,12.11
2022-12-31T01:47:46.283Z,12.08
2022-12-31T01:50:27.314Z,12.08
2022-12-31T01:53:02.327Z,12.04
2022-12-31T01:55:38.461Z,12.02
2022-12-31T01:58:21.160Z,12.00
2022-12-31T02:00:53.268Z,11.96
2022-12-31T02:03:26.180Z,11.94
2022-12-31T02:06:10.846Z,11.92
2022-12-31T02:08:44.039Z,11.94
2022-12-31T02:11:26.147Z,11.94
2022-12-31T02:14:02.141Z,11.89
2022-12-31T02:16:52.249Z,11.96
2022-12-31T02:19:56.048Z,11.96
2022-12-31T02:22:56.497Z,11.94
2022-12-31T02:25:37.039Z,11.96
2022-12-31T02:28:38.009Z,11.95
2022-12-31T02:31:17.478Z,11.97
2022-12-31T02:34:02.380Z,11.98
2022-12-31T02:36:38.531Z,11.92
2022-12-31T02:39:10.621Z,11.99
2022-12-31T02:41:51.167Z,11.96
2022-12-31T02:44:26.228Z,11.95
2022-12-31T02:47:19.005Z,11.91
2022-12-31T02:50:11.722Z,11.91
2022-12-31T02:53:04.728Z,11.78
2022-12-31T02:55:49.468Z,11.83
2022-12-31T02:58:52.678Z,11.93
2022-12-31T03:01:47.427Z,11.93
2022-12-31T03:04:32.397Z,11.93
2022-12-31T03:07:25.064Z,11.95
2022-12-31T03:09:56.412Z,11.93
2022-12-31T03:12:49.154Z,12.02
2022-12-31T03:15:23.421Z,12.05
2022-12-31T03:18:02.530Z,12.07
2022-12-31T03:20:55.740Z,12.10
2022-12-31T03:23:28.514Z,12.13
2022-12-31T03:26:01.057Z,12.03
2022-12-31T03:28:32.323Z,12.16
2022-12-31T03:31:04.343Z,12.18
2022-12-31T03:33:38.963Z,12.22
2022-12-31T03:36:13.445Z,12.20
2022-12-31T03:38:48.435Z,12.25
2022-12-31T03:41:22.436Z,12.16
2022-12-31T03:43:53.684Z,12.21
2022-12-31T03:46:25.009Z,12.23
2022-12-31T03:48:56.269Z,12.23
2022-12-31T03:51:27.588Z,12.23
2022-12-31T03:53:58.860Z,12.21
2022-12-31T03:56:30.125Z,12.24
2022-12-31T03:59:01.412Z,12.23
2022-12-31T04:01:32.805Z,12.10
2022-12-31T04:04:04.265Z,12.08
2022-12-31T04:06:35.553Z,12.20
2022-12-31T04:09:06.884Z,12.18
2022-12-31T04:11:38.263Z,12.20
2022-12-31T04:14:09.551Z,12.18
2022-12-31T04:16:40.840Z,12.18
2022-12-31T04:19:13.091Z,12.03
2022-12-31T04:21:44.425Z,12.03
2022-12-31T04:24:15.711Z,11.98
2022-12-31T04:26:46.994Z,11.98
2022-12-31T04:29:18.310Z,12.08
2022-12-31T04:31:49.650Z,12.06
2022-12-31T04:34:21.507Z,12.02
2022-12-31T04:36:52.786Z,12.00
2022-12-31T04:39:24.918Z,11.89
2022-12-31T04:41:56.224Z,11.84
2022-12-31T04:44:27.579Z,12.00
2022-12-31T04:46:58.866Z,11.97
2022-12-31T04:49:30.130Z,11.95
2022-12-31T04:52:01.412Z,11.95
2022-12-31T04:54:32.682Z,11.94
2022-12-31T04:57:04.142Z,11.91
2022-12-31T04:59:35.408Z,11.86
2022-12-31T05:02:07.055Z,11.85
2022-12-31T05:04:38.488Z,11.85
2022-12-31T05:07:09.783Z,11.84
2022-12-31T05:09:41.082Z,11.74
2022-12-31T05:12:12.350Z,11.70
2022-12-31T05:14:43.612Z,11.82
2022-12-31T05:17:14.979Z,11.76
2022-12-31T05:19:46.253Z,11.75
2022-12-31T05:22:29.565Z,11.58
2022-12-31T05:25:01.212Z,11.70
2022-12-31T05:27:33.183Z,11.66
2022-12-31T05:30:06.332Z,11.65
2022-12-31T05:32:37.949Z,11.55
2022-12-31T05:35:09.340Z,11.60
2022-12-31T05:37:40.702Z,11.58
2022-12-31T05:40:12.600Z,11.52
2022-12-31T05:42:44.417Z,11.50
2022-12-31T05:45:15.849Z,11.48
2022-12-31T05:47:47.245Z,11.40
2022-12-31T05:50:18.525Z,11.45
2022-12-31T05:52:49.798Z,11.38
2022-12-31T05:55:21.172Z,11.41
2022-12-31T05:57:52.517Z,11.39
2022-12-31T06:00:23.800Z,11.18
2022-12-31T06:02:55.077Z,11.30
2022-12-31T06:05:26.824Z,11.33
2022-12-31T06:07:58.154Z,11.18
2022-12-31T06:10:29.505Z,11.19
2022-12-31T06:13:00.782Z,11.14
2022-12-31T06:15:32.375Z,11.27
2022-12-31T06:18:03.850Z,11.23
2022-12-31T06:20:40.671Z,11.13
2022-12-31T06:23:15.210Z,11.04
2022-12-31T06:25:46.486Z,11.14
2022-12-31T06:28:20.412Z,11.12
2022-12-31T06:30:59.241Z,10.99
2022-12-31T06:33:31.136Z,11.07
2022-12-31T06:36:05.277Z,11.04
2022-12-31T06:38:38.457Z,11.04
2022-12-31T06:41:12.938Z,11.04
2022-12-31T06:43:44.894Z,11.02
2022-12-31T06:46:18.211Z,11.02
2022-12-31T06:48:49.575Z,11.01
2022-12-31T06:51:21.902Z,11.03
2022-12-31T06:53:53.297Z,11.03
2022-12-31T06:56:34.015Z,11.06
2022-12-31T06:59:06.441Z,11.01
2022-12-31T07:01:58.052Z,11.06
2022-12-31T07:04:48.704Z,11.04
2022-12-31T07:07:24.955Z,11.05
2022-12-31T07:10:01.293Z,11.05
2022-12-31T07:12:51.032Z,11.03
2022-12-31T07:15:57.147Z,11.03
2022-12-31T07:19:07.455Z,11.05
2022-12-31T07:21:41.174Z,11.05
2022-12-31T07:24:13.010Z,11.04
2022-12-31T07:27:08.868Z,11.09
2022-12-31T07:30:04.092Z,11.12
2022-12-31T07:33:08.337Z,11.06
2022-12-31T07:36:16.971Z,11.16
2022-12-31T07:39:10.230Z,11.15
2022-12-31T07:41:58.954Z,11.11
2022-12-31T07:44:44.252Z,11.13
2022-12-31T07:47:23.322Z,11.18
2022-12-31T07:49:55.850Z,11.17
2022-12-31T07:52:27.425Z,11.17
2022-12-31T07:54:59.731Z,11.17
2022-12-31T07:57:38.373Z,11.14
2022-12-31T08:00:14.682Z,11.11
2022-12-31T08:03:05.466Z,11.24
2022-12-31T08:06:07.598Z,11.27
2022-12-31T08:08:53.786Z,11.19
2022-12-31T08:11:38.937Z,11.29
2022-12-31T08:14:13.062Z,11.34
2022-12-31T08:16:44.606Z,11.30
2022-12-31T08:19:32.522Z,11.38
2022-12-31T08:22:20.638Z,11.40
2022-12-31T08:25:18.183Z,11.36
2022-12-31T08:28:19.485Z,11.45
2022-12-31T08:31:48.249Z,11.45
2022-12-31T08:34:26.132Z,11.41
2022-12-31T08:37:06.923Z,11.34
2022-12-31T08:39:58.828Z,11.46
2022-12-31T08:42:49.292Z,11.51
2022-12-31T08:45:51.537Z,11.56
2022-12-31T08:48:35.402Z,11.48
2022-12-31T08:51:14.131Z,11.61
2022-12-31T08:53:45.864Z,11.60
2022-12-31T08:56:41.416Z,11.63
2022-12-31T08:59:44.068Z,11.65
2022-12-31T09:02:29.453Z,11.64
2022-12-31T09:05:16.154Z,11.70
2022-12-31T09:07:56.412Z,11.72
2022-12-31T09:10:38.859Z,11.69
2022-12-31T09:13:21.848Z,11.73
2022-12-31T09:16:05.223Z,11.77
2022-12-31T09:18:41.742Z,11.81
2022-12-31T09:21:15.174Z,11.85
2022-12-31T09:23:46.739Z,11.78
2022-12-31T09:26:35.846Z,11.94
2022-12-31T09:29:28.664Z,11.95
2022-12-31T09:32:12.308Z,11.97
2022-12-31T09:34:54.983Z,11.98
2022-12-31T09:37:45.705Z,11.87
2022-12-31T09:40:49.262Z,12.00
2022-12-31T09:43:42.534Z,12.00
2022-12-31T09:46:49.241Z,11.93
2022-12-31T09:50:01.951Z,12.01
2022-12-31T09:52:47.276Z,11.92
2022-12-31T09:55:27.448Z,11.99
2022-12-31T09:58:24.781Z,12.01
2022-12-31T10:01:13.753Z,11.93
2022-12-31T10:03:57.023Z,12.06
2022-12-31T10:06:40.195Z,12.09
2022-12-31T10:09:17.199Z,12.13
2022-12-31T10:12:05.875Z,12.13
2022-12-31T10:15:03.542Z,12.13
2022-12-31T10:17:43.910Z,12.18
2022-12-31T10:20:33.334Z,12.11
2022-12-31T10:23:40.801Z,12.25
2022-12-31T10:26:15.002Z,12.25
2022-12-31T10:28:53.920Z,12.28
2022-12-31T10:31:39.566Z,12.36
2022-12-31T10:34:17.123Z,12.42
2022-12-31T10:37:16.733Z,12.47
2022-12-31T10:40:16.230Z,12.53
2022-12-31T10:43:33.132Z,12.46
2022-12-31T10:46:41.322Z,12.56
2022-12-31T10:49:21.421Z,12.58
2022-12-31T10:52:11.772Z,12.61
2022-12-31T10:55:20.525Z,12.53
2022-12-31T10:58:09.779Z,12.66
2022-12-31T11:00:54.263Z,12.60
2022-12-31T11:03:45.002Z,12.72
2022-12-31T11:06:43.482Z,12.75
2022-12-31T11:09:56.356Z,12.81
2022-12-31T11:12:55.633Z,12.84
2022-12-31T11:15:50.368Z,12.89
2022-12-31T11:18:41.776Z,12.93
2022-12-31T11:21:34.207Z,12.99
2022-12-31T11:24:44.580Z,13.04
2022-12-31T11:27:30.803Z,13.06
2022-12-31T11:30:23.562Z,13.14
2022-12-31T11:33:25.693Z,13.19
2022-12-31T11:36:28.495Z,13.13
2022-12-31T11:39:31.428Z,13.18
2022-12-31T11:42:26.862Z,13.24
2022-12-31T11:45:14.485Z,13.27
2022-12-31T11:48:30.657Z,13.31
2022-12-31T11:51:11.866Z,13.36
2022-12-31T11:53:57.367Z,13.41
2022-12-31T11:56:37.541Z,13.24
2022-12-31T11:59:18.872Z,13.45
2022-12-31T12:01:59.704Z,13.49
2022-12-31T12:04:31.294Z,13.44
2022-12-31T12:07:02.606Z,13.61
2022-12-31T12:09:35.092Z,13.56
2022-12-31T12:12:06.533Z,13.71
2022-12-31T12:14:42.949Z,13.77
2022-12-31T12:17:32.985Z,13.74
2022-12-31T12:20:16.557Z,13.73
2022-12-31T12:22:53.413Z,13.74
2022-12-31T12:25:35.868Z,13.74
2022-12-31T12:28:27.967Z,13.77
2022-12-31T12:31:04.971Z,13.71
2022-12-31T12:33:45.424Z,13.80
2022-12-31T12:36:18.558Z,13.85
2022-12-31T12:39:01.467Z,13.86
2022-12-31T12:41:33.220Z,13.85
2022-12-31T12:44:14.346Z,13.92
2022-12-31T12:46:48.949Z,13.98
2022-12-31T12:49:32.773Z,13.90
2022-12-31T12:52:10.087Z,13.92
2022-12-31T12:55:09.803Z,13.96
2022-12-31T12:57:46.095Z,13.90
2022-12-31T13:00:24.975Z,13.87
2022-12-31T13:03:06.435Z,13.85
2022-12-31T13:05:48.582Z,13.79
2022-12-31T13:08:24.855Z,13.69
2022-12-31T13:11:32.751Z,13.80
2022-12-31T13:14:16.048Z,13.77
2022-12-31T13:17:21.629Z,13.75
2022-12-31T13:20:12.332Z,13.75
2022-12-31T13:23:01.264Z,13.63
2022-12-31T13:26:05.015Z,13.73
2022-12-31T13:28:40.389Z,13.65
2022-12-31T13:31:26.297Z,13.73
2022-12-31T13:34:27.105Z,13.73
2022-12-31T13:37:05.509Z,13.65
2022-12-31T13:39:40.734Z,13.62
2022-12-31T13:42:22.021Z,13.53
2022-12-31T13:45:00.033Z,13.53
2022-12-31T13:47:41.914Z,13.67
2022-12-31T13:50:22.060Z,13.66
2022-12-31T13:53:03.042Z,13.60
2022-12-31T13:55:41.507Z,13.66
2022-12-31T13:59:04.162Z,13.66
2022-12-31T14:01:35.499Z,13.66
2022-12-31T14:04:18.319Z,13.69
2022-12-31T14:07:06.355Z,13.71
2022-12-31T14:09:37.801Z,13.71
2022-12-31T14:12:37.793Z,13.73
2022-12-31T14:15:22.679Z,13.69
2022-12-31T14:18:18.984Z,13.78
2022-12-31T14:21:01.452Z,13.79
2022-12-31T14:24:20.993Z,13.78
2022-12-31T14:26:57.357Z,13.75
2022-12-31T14:30:06.961Z,13.77
2022-12-31T14:32:53.240Z,13.77
2022-12-31T14:35:37.636Z,13.74
2022-12-31T14:38:39.803Z,13.74
2022-12-31T14:41:33.077Z,13.73
2022-12-31T14:44:43.291Z,13.72
2022-12-31T14:47:36.044Z,13.73
2022-12-31T14:50:22.363Z,13.74
2022-12-31T14:52:55.079Z,13.77
2022-12-31T14:55:28.426Z,13.78
2022-12-31T14:58:27.332Z,13.80
2022-12-31T15:01:14.523Z,13.80
2022-12-31T15:03:46.454Z,13.78
2022-12-31T15:06:23.733Z,13.81
2022-12-31T15:09:08.914Z,13.80
2022-12-31T15:11:49.293Z,13.77
2022-12-31T15:14:26.392Z,13.73
2022-12-31T15:17:16.051Z,13.66
2022-12-31T15:20:27.664Z,13.56
2022-12-31T15:22:59.394Z,13.46
2022-12-31T15:25:40.392Z,13.29
2022-12-31T15:28:29.380Z,13.26
2022-12-31T15:31:18.892Z,13.15
2022-12-31T15:33:56.397Z,13.14
2022-12-31T15:36:30.950Z,13.12
2022-12-31T15:39:11.330Z,13.12
2022-12-31T15:42:35.625Z,13.10
2022-12-31T15:44:59.148Z,13.08
2022-12-31T15:47:54.903Z,13.06
2022-12-31T15:50:27.579Z,13.04
2022-12-31T15:53:02.544Z,13.05
2022-12-31T15:55:42.359Z,13.00
2022-12-31T15:58:26.389Z,13.08
2022-12-31T16:01:07.717Z,13.06
2022-12-31T16:03:43.829Z,13.09
2022-12-31T16:06:16.765Z,13.09
2022-12-31T16:08:49.806Z,13.13
2022-12-31T16:11:22.934Z,13.15
2022-12-31T16:13:55.587Z,13.14
2022-12-31T16:16:32.115Z,13.06
2022-12-31T16:19:03.512Z,13.16
2022-12-31T16:21:36.818Z,13.26
2022-12-31T16:24:29.078Z,13.30
2022-12-31T16:27:05.333Z,13.22
2022-12-31T16:29:41.417Z,13.29
2022-12-31T16:32:15.771Z,13.33
2022-12-31T16:34:47.071Z,13.34
2022-12-31T16:37:20.757Z,13.47
2022-12-31T16:39:58.059Z,13.54
2022-12-31T16:42:30.592Z,13.60
2022-12-31T16:45:17.938Z,13.66
2022-12-31T16:47:49.293Z,13.73
2022-12-31T16:50:22.951Z,13.70
2022-12-31T16:53:06.178Z,13.67
2022-12-31T16:55:38.703Z,13.71
2022-12-31T16:58:26.040Z,13.81
2022-12-31T17:01:19.900Z,13.80
2022-12-31T17:03:55.275Z,13.80
2022-12-31T17:06:33.290Z,13.79
2022-12-31T17:09:10.009Z,13.80
2022-12-31T17:11:54.799Z,13.73
2022-12-31T17:14:30.362Z,13.71
2022-12-31T17:17:07.365Z,13.82
2022-12-31T17:19:47.183Z,13.77
2022-12-31T17:22:34.361Z,13.71
2022-12-31T17:25:23.108Z,13.80
2022-12-31T17:28:00.717Z,13.77
2022-12-31T17:30:35.123Z,13.78
2022-12-31T17:33:12.272Z,13.80
2022-12-31T17:35:44.926Z,13.72
2022-12-31T17:38:22.430Z,13.80
2022-12-31T17:41:04.238Z,13.78
2022-12-31T17:43:38.786Z,13.71
2022-12-31T17:46:16.407Z,13.71
2022-12-31T17:48:52.968Z,13.79
2022-12-31T17:51:24.845Z,13.68
2022-12-31T17:53:56.286Z,13.64
2022-12-31T17:56:27.631Z,13.68
2022-12-31T17:59:00.349Z,13.64
2022-12-31T18:01:31.780Z,13.70
2022-12-31T18:04:03.235Z,13.71
2022-12-31T18:06:34.492Z,13.67
2022-12-31T18:09:05.786Z,13.72
2022-12-31T18:11:38.433Z,13.73
2022-12-31T18:14:14.262Z,13.70
2022-12-31T18:16:45.623Z,13.67
2022-12-31T18:19:45.828Z,13.74
2022-12-31T18:22:14.371Z,13.67
2022-12-31T18:24:56.339Z,13.69
2022-12-31T18:27:27.720Z,13.73
2022-12-31T18:30:04.505Z,13.80
2022-12-31T18:32:37.251Z,13.79
2022-12-31T18:35:48.559Z,13.80
2022-12-31T18:38:16.219Z,13.81
2022-12-31T18:40:59.159Z,13.84
2022-12-31T18:43:30.544Z,13.83
2022-12-31T18:46:01.861Z,13.81
2022-12-31T18:48:33.141Z,13.78
2022-12-31T18:51:04.507Z,13.80
2022-12-31T18:53:35.781Z,13.79
2022-12-31T18:56:12.143Z,13.72
2022-12-31T18:58:44.629Z,13.78
2022-12-31T19:01:32.818Z,13.79
2022-12-31T19:04:12.741Z,13.78
2022-12-31T19:06:44.031Z,13.78
2022-12-31T19:09:43.493Z,13.77
2022-12-31T19:12:12.924Z,13.67
2022-12-31T19:14:45.397Z,13.74
2022-12-31T19:17:17.487Z,13.80
2022-12-31T19:19:48.765Z,13.81
2022-12-31T19:22:20.045Z,13.73
2022-12-31T19:24:51.320Z,13.72
2022-12-31T19:27:22.607Z,13.77
2022-12-31T19:29:53.936Z,13.70
2022-12-31T19:32:25.204Z,13.78
2022-12-31T19:34:56.519Z,13.74
2022-12-31T19:37:27.803Z,13.74
2022-12-31T19:39:59.278Z,13.69
2022-12-31T19:42:30.589Z,13.66
2022-12-31T19:45:02.076Z,13.67
2022-12-31T19:47:33.350Z,13.79
2022-12-31T19:50:05.235Z,13.69
2022-12-31T19:52:36.890Z,13.73
2022-12-31T19:55:11.792Z,13.78
2022-12-31T19:57:43.082Z,13.78
2022-12-31T20:00:16.794Z,13.79
2022-12-31T20:02:48.756Z,13.79
2022-12-31T20:05:20.292Z,13.74
2022-12-31T20:07:51.568Z,13.80
2022-12-31T20:10:22.871Z,13.81
2022-12-31T20:12:54.216Z,13.74
2022-12-31T20:15:25.559Z,13.80
2022-12-31T20:17:57.742Z,13.85
2022-12-31T20:20:29.124Z,13.87
2022-12-31T20:23:00.449Z,13.78
2022-12-31T20:25:31.738Z,13.85
2022-12-31T20:28:03.049Z,13.86
2022-12-31T20:30:37.683Z,13.87
2022-12-31T20:33:10.390Z,13.88
2022-12-31T20:35:44.691Z,13.83
2022-12-31T20:38:15.969Z,13.81
2022-12-31T20:40:47.407Z,13.85
2022-12-31T20:43:18.704Z,13.90
2022-12-31T20:45:49.999Z,13.85
2022-12-31T20:48:21.319Z,13.94
2022-12-31T20:50:57.149Z,13.92
2022-12-31T20:53:28.469Z,13.85
2022-12-31T20:56:09.435Z,13.96
2022-12-31T20:58:40.724Z,13.89
2022-12-31T21:01:12.714Z,13.96
2022-12-31T21:06:37.061Z,13.97
2022-12-31T21:09:08.676Z,14.00
2022-12-31T21:11:58.805Z,13.92
2022-12-31T21:14:30.100Z,13.92
2022-12-31T21:17:01.377Z,13.95
2022-12-31T21:19:32.664Z,14.01
2022-12-31T21:22:03.995Z,14.01
2022-12-31T21:24:35.309Z,14.01
2022-12-31T21:27:06.679Z,13.91
2022-12-31T21:29:55.772Z,14.02
2022-12-31T21:32:29.331Z,14.03
2022-12-31T21:35:40.290Z,14.07
2022-12-31T21:37:59.238Z,14.08
2022-12-31T21:40:32.265Z,14.05
2022-12-31T21:43:03.626Z,14.03
2022-12-31T21:45:34.904Z,14.14
2022-12-31T21:48:24.732Z,14.08
2022-12-31T21:51:09.721Z,14.12
2022-12-31T21:53:41.056Z,13.96
2022-12-31T21:56:14.430Z,14.04
2022-12-31T21:59:08.645Z,14.16
2022-12-31T22:02:00.795Z,14.05
2022-12-31T22:07:23.505Z,14.24
2022-12-31T22:09:54.802Z,14.25
2022-12-31T22:12:26.094Z,14.07
2022-12-31T22:15:15.700Z,14.30
2022-12-31T22:17:47.480Z,14.14
2022-12-31T22:20:28.196Z,14.23
2022-12-31T22:23:00.113Z,14.11
2022-12-31T22:25:36.726Z,14.21
2022-12-31T22:31:00.635Z,14.19
2022-12-31T22:33:32.009Z,14.23
2022-12-31T22:36:06.165Z,14.29
2022-12-31T22:38:37.804Z,14.16
2022-12-31T22:41:12.180Z,14.30
2022-12-31T22:43:46.930Z,14.34
2022-12-31T22:46:23.704Z,14.39
2022-12-31T22:48:57.942Z,14.33
2022-12-31T22:51:55.208Z,14.45
2022-12-31T22:54:22.365Z,14.47
2022-12-31T22:56:53.816Z,14.57
2022-12-31T22:59:25.190Z,14.53
2022-12-31T23:01:56.463Z,14.61
2022-12-31T23:04:27.870Z,14.72
2022-12-31T23:06:59.717Z,14.65
2022-12-31T23:09:49.614Z,14.71
2022-12-31T23:12:21.051Z,14.72
2022-12-31T23:15:10.828Z,14.72
2022-12-31T23:18:00.655Z,14.71
2022-12-31T23:20:50.736Z,14.68
2022-12-31T23:23:22.222Z,14.62
2022-12-31T23:26:00.799Z,14.61
2022-12-31T23:28:32.076Z,14.58
2022-12-31T23:31:06.043Z,14.53
2022-12-31T23:33:37.367Z,14.59
2022-12-31T23:36:08.969Z,14.59
2022-12-31T23:38:40.296Z,14.61
2022-12-31T23:41:16.154Z,14.61
2022-12-31T23:43:48.284Z,14.64
2022-12-31T23:46:19.612Z,14.64
2022-12-31T23:48:51.226Z,14.79
2022-12-31T23:51:22.771Z,14.76
2022-12-31T23:53:54.121Z,14.88
2022-12-31T23:56:25.390Z,14.88
2022-12-31T23:58:58.099Z,14.81
